sensor_id;sensor_type;location;lat;lon;timestamp;temperature;humidity
34574;DHT22;20809;49.594;8.734;2023-04-07T00:00:37;6.60;99.90
34574;DHT22;20809;49.594;8.734;2023-04-07T00:03:39;6.60;99.90
34574;DHT22;20809;49.594;8.734;2023-04-07T00:06:41;6.60;99.90
34574;DHT22;20809;49.594;8.734;2023-04-07T00:09:43;6.60;99.90
34574;DHT22;20809;49.594;8.734;2023-04-07T00:12:45;6.60;99.90
34574;DHT22;20809;49.594;8.734;2023-04-07T00:15:46;6.60;99.90
34574;DHT22;20809;49.594;8.734;2023-04-07T00:18:48;6.60;99.90
34574;DHT22;20809;49.594;8.734;2023-04-07T00:21:50;6.60;99.90
34574;DHT22;20809;49.594;8.734;2023-04-07T00:24:55;6.60;99.90
34574;DHT22;20809;49.594;8.734;2023-04-07T00:28:02;6.60;99.90
34574;DHT22;20809;49.594;8.734;2023-04-07T00:31:06;6.70;99.90
34574;DHT22;20809;49.594;8.734;2023-04-07T00:34:10;6.70;99.90
34574;DHT22;20809;49.594;8.734;2023-04-07T00:37:14;6.80;99.90
34574;DHT22;20809;49.594;8.734;2023-04-07T00:40:16;6.80;99.90
34574;DHT22;20809;49.594;8.734;2023-04-07T00:43:21;6.80;99.90
34574;DHT22;20809;49.594;8.734;2023-04-07T00:46:25;6.80;99.90
34574;DHT22;20809;49.594;8.734;2023-04-07T00:49:26;6.80;99.90
34574;DHT22;20809;49.594;8.734;2023-04-07T00:52:36;6.90;99.90
34574;DHT22;20809;49.594;8.734;2023-04-07T00:59:35;6.80;99.90
34574;DHT22;20809;49.594;8.734;2023-04-07T01:02:56;6.80;99.90
34574;DHT22;20809;49.594;8.734;2023-04-07T01:06:01;6.80;99.90
34574;DHT22;20809;49.594;8.734;2023-04-07T01:09:14;6.70;99.90
34574;DHT22;20809;49.594;8.734;2023-04-07T01:12:28;6.80;99.90
34574;DHT22;20809;49.594;8.734;2023-04-07T01:15:36;6.60;99.90
34574;DHT22;20809;49.594;8.734;2023-04-07T01:18:41;6.60;99.90
34574;DHT22;20809;49.594;8.734;2023-04-07T01:21:46;6.70;99.90
34574;DHT22;20809;49.594;8.734;2023-04-07T01:31:41;6.70;99.90
34574;DHT22;20809;49.594;8.734;2023-04-07T01:34:46;6.80;99.90
34574;DHT22;20809;49.594;8.734;2023-04-07T01:37:56;6.80;99.90
34574;DHT22;20809;49.594;8.734;2023-04-07T01:41:02;6.80;99.90
34574;DHT22;20809;49.594;8.734;2023-04-07T01:44:07;6.70;99.90
34574;DHT22;20809;49.594;8.734;2023-04-07T01:47:09;6.70;99.90
34574;DHT22;20809;49.594;8.734;2023-04-07T01:50:16;6.70;99.90
34574;DHT22;20809;49.594;8.734;2023-04-07T01:53:25;6.70;99.90
34574;DHT22;20809;49.594;8.734;2023-04-07T01:56:30;6.70;99.90
34574;DHT22;20809;49.594;8.734;2023-04-07T01:59:36;6.60;99.90
34574;DHT22;20809;49.594;8.734;2023-04-07T02:02:44;6.60;99.90
34574;DHT22;20809;49.594;8.734;2023-04-07T02:05:51;6.60;99.90
34574;DHT22;20809;49.594;8.734;2023-04-07T02:09:01;6.60;99.90
34574;DHT22;20809;49.594;8.734;2023-04-07T02:12:12;6.60;99.90
34574;DHT22;20809;49.594;8.734;2023-04-07T02:15:15;6.60;99.90
34574;DHT22;20809;49.594;8.734;2023-04-07T02:18:18;6.60;99.90
34574;DHT22;20809;49.594;8.734;2023-04-07T02:21:28;6.60;99.90
34574;DHT22;20809;49.594;8.734;2023-04-07T02:24:33;6.60;99.90
34574;DHT22;20809;49.594;8.734;2023-04-07T02:27:38;6.70;99.90
34574;DHT22;20809;49.594;8.734;2023-04-07T02:30:44;6.70;99.90
34574;DHT22;20809;49.594;8.734;2023-04-07T02:33:48;6.60;99.90
34574;DHT22;20809;49.594;8.734;2023-04-07T02:36:51;6.60;99.90
34574;DHT22;20809;49.594;8.734;2023-04-07T02:39:54;6.60;99.90
34574;DHT22;20809;49.594;8.734;2023-04-07T02:43:04;6.70;99.90
34574;DHT22;20809;49.594;8.734;2023-04-07T02:46:11;6.70;99.90
34574;DHT22;20809;49.594;8.734;2023-04-07T02:49:19;6.70;99.90
34574;DHT22;20809;49.594;8.734;2023-04-07T02:52:23;6.80;99.90
34574;DHT22;20809;49.594;8.734;2023-04-07T02:55:27;6.80;99.90
34574;DHT22;20809;49.594;8.734;2023-04-07T02:58:31;6.80;99.90
34574;DHT22;20809;49.594;8.734;2023-04-07T03:01:34;6.80;99.90
34574;DHT22;20809;49.594;8.734;2023-04-07T03:04:38;6.80;99.90
34574;DHT22;20809;49.594;8.734;2023-04-07T03:07:41;6.70;99.90
34574;DHT22;20809;49.594;8.734;2023-04-07T03:10:43;6.70;99.90
34574;DHT22;20809;49.594;8.734;2023-04-07T03:13:47;6.80;99.90
34574;DHT22;20809;49.594;8.734;2023-04-07T03:16:50;6.80;99.90
34574;DHT22;20809;49.594;8.734;2023-04-07T03:19:51;6.80;99.90
34574;DHT22;20809;49.594;8.734;2023-04-07T03:22:55;6.80;99.90
34574;DHT22;20809;49.594;8.734;2023-04-07T03:26:02;6.90;99.90
34574;DHT22;20809;49.594;8.734;2023-04-07T03:29:06;6.90;99.90
34574;DHT22;20809;49.594;8.734;2023-04-07T03:32:09;6.90;99.90
34574;DHT22;20809;49.594;8.734;2023-04-07T03:35:13;7.00;99.90
34574;DHT22;20809;49.594;8.734;2023-04-07T03:38:14;6.90;99.90
34574;DHT22;20809;49.594;8.734;2023-04-07T03:41:20;7.00;99.90
34574;DHT22;20809;49.594;8.734;2023-04-07T03:44:24;7.00;99.90
34574;DHT22;20809;49.594;8.734;2023-04-07T03:47:26;7.00;99.90
34574;DHT22;20809;49.594;8.734;2023-04-07T03:50:27;7.00;99.90
34574;DHT22;20809;49.594;8.734;2023-04-07T03:53:28;7.10;99.90
34574;DHT22;20809;49.594;8.734;2023-04-07T03:56:29;7.10;99.90
34574;DHT22;20809;49.594;8.734;2023-04-07T03:59:31;7.10;99.90
34574;DHT22;20809;49.594;8.734;2023-04-07T04:02:35;7.10;99.90
34574;DHT22;20809;49.594;8.734;2023-04-07T04:05:37;7.10;99.90
34574;DHT22;20809;49.594;8.734;2023-04-07T04:08:40;7.10;99.90
34574;DHT22;20809;49.594;8.734;2023-04-07T04:11:42;7.10;99.90
34574;DHT22;20809;49.594;8.734;2023-04-07T04:14:51;7.00;99.90
34574;DHT22;20809;49.594;8.734;2023-04-07T04:17:54;7.00;99.90
34574;DHT22;20809;49.594;8.734;2023-04-07T04:20:57;7.00;99.90
34574;DHT22;20809;49.594;8.734;2023-04-07T04:24:01;7.00;99.90
34574;DHT22;20809;49.594;8.734;2023-04-07T04:27:05;6.90;99.90
34574;DHT22;20809;49.594;8.734;2023-04-07T04:30:11;6.80;99.90
34574;DHT22;20809;49.594;8.734;2023-04-07T04:33:15;6.70;99.90
34574;DHT22;20809;49.594;8.734;2023-04-07T04:36:22;6.70;99.90
34574;DHT22;20809;49.594;8.734;2023-04-07T04:39:26;6.70;99.90
34574;DHT22;20809;49.594;8.734;2023-04-07T04:42:38;6.60;99.90
34574;DHT22;20809;49.594;8.734;2023-04-07T04:45:42;6.60;99.90
34574;DHT22;20809;49.594;8.734;2023-04-07T04:48:47;6.60;99.90
34574;DHT22;20809;49.594;8.734;2023-04-07T04:51:52;6.60;99.90
34574;DHT22;20809;49.594;8.734;2023-04-07T04:54:59;6.50;99.90
34574;DHT22;20809;49.594;8.734;2023-04-07T04:58:05;6.50;99.90
34574;DHT22;20809;49.594;8.734;2023-04-07T05:01:13;6.40;99.90
34574;DHT22;20809;49.594;8.734;2023-04-07T05:04:18;6.40;99.90
34574;DHT22;20809;49.594;8.734;2023-04-07T05:07:23;6.40;99.90
34574;DHT22;20809;49.594;8.734;2023-04-07T05:10:28;6.40;99.90
34574;DHT22;20809;49.594;8.734;2023-04-07T05:13:32;6.30;99.90
34574;DHT22;20809;49.594;8.734;2023-04-07T05:16:36;6.40;99.90
34574;DHT22;20809;49.594;8.734;2023-04-07T05:19:49;6.50;99.90
34574;DHT22;20809;49.594;8.734;2023-04-07T05:22:57;6.50;99.90
34574;DHT22;20809;49.594;8.734;2023-04-07T05:26:07;6.50;99.90
34574;DHT22;20809;49.594;8.734;2023-04-07T05:29:11;6.50;99.90
34574;DHT22;20809;49.594;8.734;2023-04-07T05:32:14;6.50;99.90
34574;DHT22;20809;49.594;8.734;2023-04-07T05:35:21;6.50;99.90
34574;DHT22;20809;49.594;8.734;2023-04-07T05:38:27;6.60;99.90
34574;DHT22;20809;49.594;8.734;2023-04-07T05:41:33;6.80;99.90
34574;DHT22;20809;49.594;8.734;2023-04-07T05:44:42;6.80;99.90
34574;DHT22;20809;49.594;8.734;2023-04-07T05:48:08;7.00;99.90
34574;DHT22;20809;49.594;8.734;2023-04-07T05:51:44;7.10;99.90
34574;DHT22;20809;49.594;8.734;2023-04-07T05:54:55;7.10;99.90
34574;DHT22;20809;49.594;8.734;2023-04-07T05:57:59;7.20;99.90
34574;DHT22;20809;49.594;8.734;2023-04-07T06:01:07;7.20;99.90
34574;DHT22;20809;49.594;8.734;2023-04-07T06:04:11;7.20;99.90
34574;DHT22;20809;49.594;8.734;2023-04-07T06:07:14;7.30;99.90
34574;DHT22;20809;49.594;8.734;2023-04-07T06:10:16;7.30;99.90
34574;DHT22;20809;49.594;8.734;2023-04-07T06:13:20;7.10;99.90
34574;DHT22;20809;49.594;8.734;2023-04-07T06:16:26;7.10;99.90
34574;DHT22;20809;49.594;8.734;2023-04-07T06:19:31;7.30;99.90
34574;DHT22;20809;49.594;8.734;2023-04-07T06:22:34;7.40;99.90
34574;DHT22;20809;49.594;8.734;2023-04-07T06:25:38;7.70;99.90
34574;DHT22;20809;49.594;8.734;2023-04-07T06:28:47;7.90;99.90
34574;DHT22;20809;49.594;8.734;2023-04-07T06:31:50;8.30;99.90
34574;DHT22;20809;49.594;8.734;2023-04-07T06:34:54;8.60;99.90
34574;DHT22;20809;49.594;8.734;2023-04-07T06:37:57;8.80;99.90
34574;DHT22;20809;49.594;8.734;2023-04-07T06:40:59;9.10;99.90
34574;DHT22;20809;49.594;8.734;2023-04-07T06:44:20;9.40;99.90
34574;DHT22;20809;49.594;8.734;2023-04-07T06:47:41;9.70;99.90
34574;DHT22;20809;49.594;8.734;2023-04-07T06:51:04;9.90;99.90
34574;DHT22;20809;49.594;8.734;2023-04-07T06:54:15;10.20;99.90
34574;DHT22;20809;49.594;8.734;2023-04-07T06:57:21;10.40;99.90
34574;DHT22;20809;49.594;8.734;2023-04-07T07:00:35;10.60;99.90
34574;DHT22;20809;49.594;8.734;2023-04-07T07:03:42;10.70;99.90
34574;DHT22;20809;49.594;8.734;2023-04-07T07:06:50;10.80;99.90
34574;DHT22;20809;49.594;8.734;2023-04-07T07:09:55;11.20;99.90
34574;DHT22;20809;49.594;8.734;2023-04-07T07:13:00;11.50;99.90
34574;DHT22;20809;49.594;8.734;2023-04-07T07:16:08;11.90;99.90
34574;DHT22;20809;49.594;8.734;2023-04-07T07:19:18;12.20;99.90
34574;DHT22;20809;49.594;8.734;2023-04-07T07:22:27;12.30;99.90
34574;DHT22;20809;49.594;8.734;2023-04-07T07:25:37;12.40;99.90
34574;DHT22;20809;49.594;8.734;2023-04-07T07:28:44;12.80;99.90
34574;DHT22;20809;49.594;8.734;2023-04-07T07:31:49;13.10;99.90
34574;DHT22;20809;49.594;8.734;2023-04-07T07:34:52;13.40;99.90
34574;DHT22;20809;49.594;8.734;2023-04-07T07:37:57;13.70;99.90
34574;DHT22;20809;49.594;8.734;2023-04-07T07:41:05;13.90;99.90
34574;DHT22;20809;49.594;8.734;2023-04-07T07:44:11;14.30;99.90
34574;DHT22;20809;49.594;8.734;2023-04-07T07:47:20;15.00;99.90
34574;DHT22;20809;49.594;8.734;2023-04-07T07:50:23;15.60;99.90
34574;DHT22;20809;49.594;8.734;2023-04-07T07:53:33;16.40;99.90
34574;DHT22;20809;49.594;8.734;2023-04-07T07:56:37;16.90;99.90
34574;DHT22;20809;49.594;8.734;2023-04-07T07:59:41;17.00;99.90
34574;DHT22;20809;49.594;8.734;2023-04-07T08:02:48;16.60;99.90
34574;DHT22;20809;49.594;8.734;2023-04-07T08:05:53;16.60;99.90
34574;DHT22;20809;49.594;8.734;2023-04-07T08:09:02;16.00;99.90
34574;DHT22;20809;49.594;8.734;2023-04-07T08:12:07;15.40;99.90
34574;DHT22;20809;49.594;8.734;2023-04-07T08:15:10;15.10;99.90
34574;DHT22;20809;49.594;8.734;2023-04-07T08:18:13;15.20;99.90
34574;DHT22;20809;49.594;8.734;2023-04-07T08:21:18;15.20;99.90
34574;DHT22;20809;49.594;8.734;2023-04-07T08:24:22;15.20;99.90
34574;DHT22;20809;49.594;8.734;2023-04-07T08:27:25;15.20;99.90
34574;DHT22;20809;49.594;8.734;2023-04-07T08:30:29;15.00;99.90
34574;DHT22;20809;49.594;8.734;2023-04-07T08:33:32;14.70;99.90
34574;DHT22;20809;49.594;8.734;2023-04-07T08:36:35;14.40;99.90
34574;DHT22;20809;49.594;8.734;2023-04-07T08:39:39;13.80;99.90
34574;DHT22;20809;49.594;8.734;2023-04-07T08:42:51;13.50;99.90
34574;DHT22;20809;49.594;8.734;2023-04-07T08:45:55;13.50;99.90
34574;DHT22;20809;49.594;8.734;2023-04-07T08:49:09;13.90;99.90
34574;DHT22;20809;49.594;8.734;2023-04-07T08:52:15;14.40;99.90
34574;DHT22;20809;49.594;8.734;2023-04-07T08:55:18;15.00;99.90
34574;DHT22;20809;49.594;8.734;2023-04-07T08:58:22;15.50;99.90
34574;DHT22;20809;49.594;8.734;2023-04-07T09:01:31;15.90;99.90
34574;DHT22;20809;49.594;8.734;2023-04-07T09:04:36;16.10;99.90
34574;DHT22;20809;49.594;8.734;2023-04-07T09:07:38;16.40;99.90
34574;DHT22;20809;49.594;8.734;2023-04-07T09:10:44;16.90;99.90
34574;DHT22;20809;49.594;8.734;2023-04-07T09:13:50;17.50;99.90
34574;DHT22;20809;49.594;8.734;2023-04-07T09:16:54;17.50;99.90
34574;DHT22;20809;49.594;8.734;2023-04-07T09:20:04;17.20;99.90
34574;DHT22;20809;49.594;8.734;2023-04-07T09:23:36;16.90;99.90
34574;DHT22;20809;49.594;8.734;2023-04-07T09:26:42;16.80;99.90
34574;DHT22;20809;49.594;8.734;2023-04-07T09:29:47;17.00;99.90
34574;DHT22;20809;49.594;8.734;2023-04-07T09:32:51;17.20;99.90
34574;DHT22;20809;49.594;8.734;2023-04-07T09:35:55;17.40;99.90
34574;DHT22;20809;49.594;8.734;2023-04-07T09:39:08;17.40;99.90
34574;DHT22;20809;49.594;8.734;2023-04-07T09:42:18;17.50;99.90
34574;DHT22;20809;49.594;8.734;2023-04-07T09:45:26;17.70;99.90
34574;DHT22;20809;49.594;8.734;2023-04-07T09:48:30;17.90;99.90
34574;DHT22;20809;49.594;8.734;2023-04-07T09:51:34;18.20;99.90
34574;DHT22;20809;49.594;8.734;2023-04-07T09:54:41;18.10;99.90
34574;DHT22;20809;49.594;8.734;2023-04-07T09:57:50;18.00;99.90
34574;DHT22;20809;49.594;8.734;2023-04-07T10:00:56;18.30;99.90
34574;DHT22;20809;49.594;8.734;2023-04-07T10:04:13;18.30;99.90
34574;DHT22;20809;49.594;8.734;2023-04-07T10:07:26;18.40;99.90
34574;DHT22;20809;49.594;8.734;2023-04-07T10:10:39;18.60;99.90
34574;DHT22;20809;49.594;8.734;2023-04-07T10:13:49;18.70;99.90
34574;DHT22;20809;49.594;8.734;2023-04-07T10:17:08;18.50;99.90
34574;DHT22;20809;49.594;8.734;2023-04-07T10:20:21;18.40;99.90
34574;DHT22;20809;49.594;8.734;2023-04-07T10:26:58;18.70;99.90
34574;DHT22;20809;49.594;8.734;2023-04-07T10:30:11;19.10;99.90
34574;DHT22;20809;49.594;8.734;2023-04-07T10:33:54;19.30;99.90
34574;DHT22;20809;49.594;8.734;2023-04-07T10:37:13;19.30;99.90
34574;DHT22;20809;49.594;8.734;2023-04-07T10:40:28;19.10;99.90
34574;DHT22;20809;49.594;8.734;2023-04-07T10:43:39;19.00;99.90
34574;DHT22;20809;49.594;8.734;2023-04-07T10:50:19;18.40;99.90
34574;DHT22;20809;49.594;8.734;2023-04-07T10:53:34;18.40;99.90
34574;DHT22;20809;49.594;8.734;2023-04-07T11:00:21;18.10;99.90
34574;DHT22;20809;49.594;8.734;2023-04-07T11:03:32;17.70;99.90
34574;DHT22;20809;49.594;8.734;2023-04-07T11:06:37;17.10;99.90
34574;DHT22;20809;49.594;8.734;2023-04-07T11:10:20;16.40;99.90
34574;DHT22;20809;49.594;8.734;2023-04-07T11:13:48;16.30;99.90
34574;DHT22;20809;49.594;8.734;2023-04-07T11:16:55;16.20;99.90
34574;DHT22;20809;49.594;8.734;2023-04-07T11:20:14;16.40;99.90
34574;DHT22;20809;49.594;8.734;2023-04-07T11:23:46;16.60;99.90
34574;DHT22;20809;49.594;8.734;2023-04-07T11:26:54;16.80;99.90
34574;DHT22;20809;49.594;8.734;2023-04-07T11:29:58;16.90;99.90
34574;DHT22;20809;49.594;8.734;2023-04-07T11:33:06;17.30;99.90
34574;DHT22;20809;49.594;8.734;2023-04-07T11:36:11;17.60;99.90
34574;DHT22;20809;49.594;8.734;2023-04-07T11:39:22;18.10;99.90
34574;DHT22;20809;49.594;8.734;2023-04-07T11:42:37;18.40;99.90
34574;DHT22;20809;49.594;8.734;2023-04-07T11:45:47;18.80;99.90
34574;DHT22;20809;49.594;8.734;2023-04-07T11:49:15;19.10;99.90
34574;DHT22;20809;49.594;8.734;2023-04-07T11:52:23;19.30;99.90
34574;DHT22;20809;49.594;8.734;2023-04-07T11:55:29;19.50;99.90
34574;DHT22;20809;49.594;8.734;2023-04-07T11:58:34;19.70;99.90
34574;DHT22;20809;49.594;8.734;2023-04-07T12:01:43;19.60;99.90
34574;DHT22;20809;49.594;8.734;2023-04-07T12:04:57;19.30;99.90
34574;DHT22;20809;49.594;8.734;2023-04-07T12:08:13;19.30;99.90
34574;DHT22;20809;49.594;8.734;2023-04-07T12:11:34;19.20;99.90
34574;DHT22;20809;49.594;8.734;2023-04-07T12:14:47;19.50;99.90
34574;DHT22;20809;49.594;8.734;2023-04-07T12:17:55;19.20;99.90
34574;DHT22;20809;49.594;8.734;2023-04-07T12:21:21;18.90;99.90
34574;DHT22;20809;49.594;8.734;2023-04-07T12:24:38;18.60;99.90
34574;DHT22;20809;49.594;8.734;2023-04-07T12:27:46;18.70;99.90
34574;DHT22;20809;49.594;8.734;2023-04-07T12:30:53;19.30;99.90
34574;DHT22;20809;49.594;8.734;2023-04-07T12:34:05;19.50;99.90
34574;DHT22;20809;49.594;8.734;2023-04-07T12:37:19;19.70;99.90
34574;DHT22;20809;49.594;8.734;2023-04-07T12:40:27;19.70;99.90
34574;DHT22;20809;49.594;8.734;2023-04-07T12:43:37;19.80;99.90
34574;DHT22;20809;49.594;8.734;2023-04-07T12:46:43;19.60;99.90
34574;DHT22;20809;49.594;8.734;2023-04-07T12:49:51;19.50;99.90
34574;DHT22;20809;49.594;8.734;2023-04-07T12:52:58;19.40;99.90
34574;DHT22;20809;49.594;8.734;2023-04-07T12:56:23;19.10;99.90
34574;DHT22;20809;49.594;8.734;2023-04-07T12:59:36;19.10;99.90
34574;DHT22;20809;49.594;8.734;2023-04-07T13:02:43;19.10;99.90
34574;DHT22;20809;49.594;8.734;2023-04-07T13:05:50;19.00;99.90
34574;DHT22;20809;49.594;8.734;2023-04-07T13:08:59;18.60;99.90
34574;DHT22;20809;49.594;8.734;2023-04-07T13:12:10;18.80;99.90
34574;DHT22;20809;49.594;8.734;2023-04-07T13:15:21;19.20;99.90
34574;DHT22;20809;49.594;8.734;2023-04-07T13:18:40;19.00;99.90
34574;DHT22;20809;49.594;8.734;2023-04-07T13:21:46;18.90;99.90
34574;DHT22;20809;49.594;8.734;2023-04-07T13:24:50;18.30;99.90
34574;DHT22;20809;49.594;8.734;2023-04-07T13:27:53;17.70;99.90
34574;DHT22;20809;49.594;8.734;2023-04-07T13:30:56;17.50;99.90
34574;DHT22;20809;49.594;8.734;2023-04-07T13:33:59;17.40;99.90
34574;DHT22;20809;49.594;8.734;2023-04-07T13:37:03;16.70;99.90
34574;DHT22;20809;49.594;8.734;2023-04-07T13:40:08;15.70;99.90
34574;DHT22;20809;49.594;8.734;2023-04-07T13:43:11;14.80;99.90
34574;DHT22;20809;49.594;8.734;2023-04-07T13:46:14;14.30;99.90
34574;DHT22;20809;49.594;8.734;2023-04-07T13:49:19;14.00;99.90
34574;DHT22;20809;49.594;8.734;2023-04-07T13:52:28;14.00;99.90
34574;DHT22;20809;49.594;8.734;2023-04-07T13:55:38;14.10;99.90
34574;DHT22;20809;49.594;8.734;2023-04-07T13:58:44;14.10;99.90
34574;DHT22;20809;49.594;8.734;2023-04-07T14:01:51;14.10;99.90
34574;DHT22;20809;49.594;8.734;2023-04-07T14:04:55;14.20;99.90
34574;DHT22;20809;49.594;8.734;2023-04-07T14:07:59;14.20;99.90
34574;DHT22;20809;49.594;8.734;2023-04-07T14:11:10;13.90;99.90
34574;DHT22;20809;49.594;8.734;2023-04-07T14:14:18;13.40;99.90
34574;DHT22;20809;49.594;8.734;2023-04-07T14:17:29;13.30;99.90
34574;DHT22;20809;49.594;8.734;2023-04-07T14:20:37;13.20;99.90
34574;DHT22;20809;49.594;8.734;2023-04-07T14:23:54;13.40;99.90
34574;DHT22;20809;49.594;8.734;2023-04-07T14:26:59;14.00;99.90
34574;DHT22;20809;49.594;8.734;2023-04-07T14:30:05;14.60;99.90
34574;DHT22;20809;49.594;8.734;2023-04-07T14:33:10;14.70;99.90
34574;DHT22;20809;49.594;8.734;2023-04-07T14:36:15;14.20;99.90
34574;DHT22;20809;49.594;8.734;2023-04-07T14:39:18;13.90;99.90
34574;DHT22;20809;49.594;8.734;2023-04-07T14:42:21;13.70;99.90
34574;DHT22;20809;49.594;8.734;2023-04-07T14:45:27;13.60;99.90
34574;DHT22;20809;49.594;8.734;2023-04-07T14:48:31;13.60;99.90
34574;DHT22;20809;49.594;8.734;2023-04-07T14:51:35;14.00;99.90
34574;DHT22;20809;49.594;8.734;2023-04-07T14:54:43;14.40;99.90
34574;DHT22;20809;49.594;8.734;2023-04-07T14:57:49;14.60;99.90
34574;DHT22;20809;49.594;8.734;2023-04-07T15:00:54;14.80;99.90
34574;DHT22;20809;49.594;8.734;2023-04-07T15:04:03;14.50;99.90
34574;DHT22;20809;49.594;8.734;2023-04-07T15:10:29;14.20;99.90
34574;DHT22;20809;49.594;8.734;2023-04-07T15:13:36;13.70;99.90
34574;DHT22;20809;49.594;8.734;2023-04-07T15:16:39;13.70;99.90
34574;DHT22;20809;49.594;8.734;2023-04-07T15:19:46;13.40;99.90
34574;DHT22;20809;49.594;8.734;2023-04-07T15:22:51;13.20;99.90
34574;DHT22;20809;49.594;8.734;2023-04-07T15:25:57;13.20;99.90
34574;DHT22;20809;49.594;8.734;2023-04-07T15:29:02;13.30;99.90
34574;DHT22;20809;49.594;8.734;2023-04-07T15:32:08;13.40;99.90
34574;DHT22;20809;49.594;8.734;2023-04-07T15:35:11;13.30;99.90
34574;DHT22;20809;49.594;8.734;2023-04-07T15:38:15;13.40;99.90
34574;DHT22;20809;49.594;8.734;2023-04-07T15:41:19;13.50;99.90
34574;DHT22;20809;49.594;8.734;2023-04-07T15:44:24;13.60;99.90
34574;DHT22;20809;49.594;8.734;2023-04-07T15:47:37;13.70;99.90
34574;DHT22;20809;49.594;8.734;2023-04-07T15:50:40;13.80;99.90
34574;DHT22;20809;49.594;8.734;2023-04-07T15:53:48;13.60;99.90
34574;DHT22;20809;49.594;8.734;2023-04-07T15:56:53;13.70;99.90
34574;DHT22;20809;49.594;8.734;2023-04-07T16:00:06;13.80;99.90
34574;DHT22;20809;49.594;8.734;2023-04-07T16:03:11;13.80;99.90
34574;DHT22;20809;49.594;8.734;2023-04-07T16:06:15;13.90;99.90
34574;DHT22;20809;49.594;8.734;2023-04-07T16:09:19;13.60;99.90
34574;DHT22;20809;49.594;8.734;2023-04-07T16:12:22;13.30;99.90
34574;DHT22;20809;49.594;8.734;2023-04-07T16:15:28;13.00;99.90
34574;DHT22;20809;49.594;8.734;2023-04-07T16:18:35;12.80;99.90
34574;DHT22;20809;49.594;8.734;2023-04-07T16:21:38;12.90;99.90
34574;DHT22;20809;49.594;8.734;2023-04-07T16:24:41;12.90;99.90
34574;DHT22;20809;49.594;8.734;2023-04-07T16:27:46;13.00;99.90
34574;DHT22;20809;49.594;8.734;2023-04-07T16:30:49;13.00;99.90
34574;DHT22;20809;49.594;8.734;2023-04-07T16:34:00;12.90;99.90
34574;DHT22;20809;49.594;8.734;2023-04-07T16:37:03;12.40;99.90
34574;DHT22;20809;49.594;8.734;2023-04-07T16:40:09;12.20;99.90
34574;DHT22;20809;49.594;8.734;2023-04-07T16:43:14;12.20;99.90
34574;DHT22;20809;49.594;8.734;2023-04-07T16:46:21;12.20;99.90
34574;DHT22;20809;49.594;8.734;2023-04-07T16:49:28;12.30;99.90
34574;DHT22;20809;49.594;8.734;2023-04-07T16:52:31;12.40;99.90
34574;DHT22;20809;49.594;8.734;2023-04-07T16:55:38;12.50;99.90
34574;DHT22;20809;49.594;8.734;2023-04-07T16:58:41;12.50;99.90
34574;DHT22;20809;49.594;8.734;2023-04-07T17:01:46;12.60;99.90
34574;DHT22;20809;49.594;8.734;2023-04-07T17:04:51;12.60;99.90
34574;DHT22;20809;49.594;8.734;2023-04-07T17:07:53;12.50;99.90
34574;DHT22;20809;49.594;8.734;2023-04-07T17:10:58;12.40;99.90
34574;DHT22;20809;49.594;8.734;2023-04-07T17:14:01;12.30;99.90
34574;DHT22;20809;49.594;8.734;2023-04-07T17:17:06;12.00;99.90
34574;DHT22;20809;49.594;8.734;2023-04-07T17:20:11;12.00;99.90
34574;DHT22;20809;49.594;8.734;2023-04-07T17:23:18;12.00;99.90
34574;DHT22;20809;49.594;8.734;2023-04-07T17:26:25;12.00;99.90
34574;DHT22;20809;49.594;8.734;2023-04-07T17:29:33;11.90;99.90
34574;DHT22;20809;49.594;8.734;2023-04-07T17:32:35;11.90;99.90
34574;DHT22;20809;49.594;8.734;2023-04-07T17:35:43;11.80;99.90
34574;DHT22;20809;49.594;8.734;2023-04-07T17:38:50;11.70;99.90
34574;DHT22;20809;49.594;8.734;2023-04-07T17:41:55;11.50;99.90
34574;DHT22;20809;49.594;8.734;2023-04-07T17:45:02;11.40;99.90
34574;DHT22;20809;49.594;8.734;2023-04-07T17:48:03;11.30;99.90
34574;DHT22;20809;49.594;8.734;2023-04-07T17:51:09;11.20;99.90
34574;DHT22;20809;49.594;8.734;2023-04-07T17:54:15;11.10;99.90
34574;DHT22;20809;49.594;8.734;2023-04-07T17:57:25;11.00;99.90
34574;DHT22;20809;49.594;8.734;2023-04-07T18:00:31;10.80;99.90
34574;DHT22;20809;49.594;8.734;2023-04-07T18:03:38;10.70;99.90
34574;DHT22;20809;49.594;8.734;2023-04-07T18:06:43;10.60;99.90
34574;DHT22;20809;49.594;8.734;2023-04-07T18:09:44;10.50;99.90
34574;DHT22;20809;49.594;8.734;2023-04-07T18:12:45;10.50;99.90
34574;DHT22;20809;49.594;8.734;2023-04-07T18:15:47;10.40;99.90
34574;DHT22;20809;49.594;8.734;2023-04-07T18:18:50;10.40;99.90
34574;DHT22;20809;49.594;8.734;2023-04-07T18:21:55;10.40;99.90
34574;DHT22;20809;49.594;8.734;2023-04-07T18:24:57;10.30;99.90
34574;DHT22;20809;49.594;8.734;2023-04-07T18:28:00;10.20;99.90
34574;DHT22;20809;49.594;8.734;2023-04-07T18:31:05;10.10;99.90
34574;DHT22;20809;49.594;8.734;2023-04-07T18:34:07;10.10;99.90
34574;DHT22;20809;49.594;8.734;2023-04-07T18:37:09;10.10;99.90
34574;DHT22;20809;49.594;8.734;2023-04-07T18:40:11;10.10;99.90
34574;DHT22;20809;49.594;8.734;2023-04-07T18:43:13;10.00;99.90
34574;DHT22;20809;49.594;8.734;2023-04-07T18:46:14;10.00;99.90
34574;DHT22;20809;49.594;8.734;2023-04-07T18:49:16;9.80;99.90
34574;DHT22;20809;49.594;8.734;2023-04-07T18:52:18;9.80;99.90
34574;DHT22;20809;49.594;8.734;2023-04-07T18:55:19;9.70;99.90
34574;DHT22;20809;49.594;8.734;2023-04-07T18:58:21;9.70;99.90
34574;DHT22;20809;49.594;8.734;2023-04-07T19:01:23;9.70;99.90
34574;DHT22;20809;49.594;8.734;2023-04-07T19:04:24;9.70;99.90
34574;DHT22;20809;49.594;8.734;2023-04-07T19:07:25;9.50;99.90
34574;DHT22;20809;49.594;8.734;2023-04-07T19:10:26;9.40;99.90
34574;DHT22;20809;49.594;8.734;2023-04-07T19:13:27;9.30;99.90
34574;DHT22;20809;49.594;8.734;2023-04-07T19:16:32;9.20;99.90
34574;DHT22;20809;49.594;8.734;2023-04-07T19:19:36;9.10;99.90
34574;DHT22;20809;49.594;8.734;2023-04-07T19:22:37;9.10;99.90
34574;DHT22;20809;49.594;8.734;2023-04-07T19:25:38;9.00;99.90
34574;DHT22;20809;49.594;8.734;2023-04-07T19:28:42;9.00;99.90
34574;DHT22;20809;49.594;8.734;2023-04-07T19:31:43;8.90;99.90
34574;DHT22;20809;49.594;8.734;2023-04-07T19:34:44;8.90;99.90
34574;DHT22;20809;49.594;8.734;2023-04-07T19:37:45;8.90;99.90
34574;DHT22;20809;49.594;8.734;2023-04-07T19:40:46;8.80;99.90
34574;DHT22;20809;49.594;8.734;2023-04-07T19:43:47;8.70;99.90
34574;DHT22;20809;49.594;8.734;2023-04-07T19:46:52;8.70;99.90
34574;DHT22;20809;49.594;8.734;2023-04-07T19:49:56;8.60;99.90
34574;DHT22;20809;49.594;8.734;2023-04-07T19:52:57;8.50;99.90
34574;DHT22;20809;49.594;8.734;2023-04-07T19:56:00;8.50;99.90
34574;DHT22;20809;49.594;8.734;2023-04-07T19:59:06;8.40;99.90
34574;DHT22;20809;49.594;8.734;2023-04-07T20:02:07;8.40;99.90
34574;DHT22;20809;49.594;8.734;2023-04-07T20:05:08;8.40;99.90
34574;DHT22;20809;49.594;8.734;2023-04-07T20:08:10;8.20;99.90
34574;DHT22;20809;49.594;8.734;2023-04-07T20:11:11;8.20;99.90